Time;durP1;ratioP1;P1;durP2;ratioP2;P2;SDS_P1;SDS_P2;PMS_P1;PMS_P2;Temp;Humidity;BMP_temperature;BMP_pressure;BME280_temperature;BME280_humidity;BME280_pressure;Samples;Min_cycle;Max_cycle;Signal;HPM_P1;HPM_P2
2021/04/11 00:00:45;;;;;;;8.98;4.60;;;5.90;83.90;;;;;;4812557;29;20064;-82
2021/04/11 00:03:16;;;;;;;5.05;4.45;;;6.00;83.70;;;;;;4843763;29;20061;-82
2021/04/11 00:05:44;;;;;;;8.60;6.05;;;6.00;82.40;;;;;;4827380;29;20049;-82
2021/04/11 00:08:13;;;;;;;5.78;4.82;;;6.00;82.00;;;;;;4827246;29;20046;-82
2021/04/11 00:10:44;;;;;;;6.75;5.07;;;6.10;82.00;;;;;;4826683;29;20057;-82
2021/04/11 00:13:17;;;;;;;5.53;4.05;;;6.10;81.70;;;;;;4827193;29;20073;-81
2021/04/11 00:15:44;;;;;;;7.85;4.53;;;6.10;81.10;;;;;;4827311;29;20054;-82
2021/04/11 00:18:12;;;;;;;5.95;3.80;;;6.10;80.00;;;;;;4843758;29;20050;-82
2021/04/11 00:20:40;;;;;;;5.32;4.15;;;6.20;79.10;;;;;;4825948;29;20410;-76
2021/04/11 00:23:08;;;;;;;4.47;3.83;;;6.30;78.10;;;;;;4841974;29;20061;-75
2021/04/11 00:25:39;;;;;;;5.25;4.55;;;6.30;77.90;;;;;;4842451;29;20054;-79
2021/04/11 00:28:10;;;;;;;5.47;4.15;;;6.30;79.40;;;;;;4826953;29;20480;-79
2021/04/11 00:30:39;;;;;;;8.07;4.18;;;6.10;82.70;;;;;;4826438;29;20419;-79
2021/04/11 00:33:09;;;;;;;4.88;4.13;;;6.10;79.70;;;;;;4843092;29;20054;-79
2021/04/11 00:35:38;;;;;;;5.35;4.10;;;6.20;78.80;;;;;;4827019;29;20057;-79
2021/04/11 00:38:05;;;;;;;11.77;4.25;;;6.20;77.90;;;;;;4826589;29;20468;-79
2021/04/11 00:40:37;;;;;;;3.72;3.42;;;6.40;77.00;;;;;;4827376;29;20058;-80
2021/04/11 00:43:12;;;;;;;5.57;3.78;;;6.30;77.60;;;;;;4826417;29;20072;-79
2021/04/11 00:46:00;;;;;;;8.65;3.92;;;6.30;78.00;;;;;;4841913;29;20057;-79
2021/04/11 00:48:31;;;;;;;6.28;4.00;;;6.20;81.10;;;;;;4842316;29;20054;-79
2021/04/11 00:51:03;;;;;;;;;;;6.00;86.00;;;;;;4826842;29;20054;-79
2021/04/11 00:53:32;;;;;;;4.80;4.40;;;5.80;88.50;;;;;;4811189;29;19924;-79
2021/04/11 00:56:01;;;;;;;5.90;5.18;;;5.80;85.60;;;;;;4843209;29;20492;-79
2021/04/11 00:58:31;;;;;;;8.50;5.63;;;5.80;84.00;;;;;;4811181;29;20416;-79
2021/04/11 01:01:00;;;;;;;4.22;3.83;;;5.90;82.50;;;;;;4843353;29;20399;-79
2021/04/11 01:03:31;;;;;;;9.35;4.45;;;6.00;81.60;;;;;;4841581;29;20050;-79
2021/04/11 01:06:00;;;;;;;8.30;4.72;;;6.10;80.60;;;;;;4826386;29;20125;-79
2021/04/11 01:08:31;;;;;;;5.93;3.78;;;6.10;80.60;;;;;;4826836;29;20058;-79
2021/04/11 01:11:14;;;;;;;4.35;4.05;;;6.00;81.00;;;;;;4842183;29;20053;-79
2021/04/11 01:13:55;;;;;;;4.75;4.35;;;5.90;79.50;;;;;;4842231;29;20054;-79
2021/04/11 01:16:23;;;;;;;4.47;4.07;;;5.90;80.10;;;;;;4842478;29;20070;-79
2021/04/11 01:18:54;;;;;;;5.32;3.75;;;5.90;79.10;;;;;;4825392;29;20511;-79
2021/04/11 01:21:47;;;;;;;5.78;5.30;;;6.00;78.10;;;;;;4811350;29;20057;-79
2021/04/11 01:24:37;;;;;;;5.55;4.30;;;6.00;77.50;;;;;;4825848;29;20065;-79
2021/04/11 01:27:07;;;;;;;5.35;4.82;;;6.00;78.00;;;;;;4825745;29;20412;-79
2021/04/11 01:29:35;;;;;;;4.65;4.32;;;5.90;79.10;;;;;;4825897;29;20042;-79
2021/04/11 01:32:05;;;;;;;4.32;3.83;;;5.70;83.20;;;;;;4825962;29;20504;-79
2021/04/11 01:34:35;;;;;;;4.95;4.55;;;5.60;82.10;;;;;;4825379;29;20042;-76
2021/04/11 01:37:04;;;;;;;8.18;4.05;;;5.60;81.90;;;;;;4840905;29;20058;-81
2021/04/11 01:39:36;;;;;;;4.40;4.03;;;5.70;79.90;;;;;;4826396;29;20404;-82
2021/04/11 01:42:06;;;;;;;8.85;5.15;;;5.70;79.70;;;;;;4825581;29;20396;-81
2021/04/11 01:44:39;;;;;;;4.82;4.43;;;5.70;80.20;;;;;;4811076;29;20061;-81
2021/04/11 01:47:08;;;;;;;3.75;3.45;;;5.70;79.90;;;;;;4825534;29;20408;-82
2021/04/11 01:49:42;;;;;;;4.93;4.15;;;5.60;82.20;;;;;;4825793;29;20046;-82
2021/04/11 01:52:26;;;;;;;7.10;4.75;;;5.40;85.20;;;;;;4842196;29;20069;-82
2021/04/11 01:54:55;;;;;;;8.52;3.55;;;5.20;85.70;;;;;;4825251;29;20053;-82
2021/04/11 01:57:27;;;;;;;5.05;4.50;;;5.20;83.00;;;;;;4825627;29;20053;-81
2021/04/11 02:00:11;;;;;;;5.47;4.63;;;5.20;84.70;;;;;;4796345;29;20061;-82
2021/04/11 02:02:53;;;;;;;5.95;4.15;;;5.20;84.60;;;;;;4824959;29;20102;-82
2021/04/11 02:05:21;;;;;;;4.43;4.03;;;5.30;84.30;;;;;;4809831;29;20057;-82
2021/04/11 02:07:55;;;;;;;4.60;4.00;;;5.40;82.40;;;;;;4796217;29;20050;-81
2021/04/11 02:10:33;;;;;;;9.35;5.43;;;5.50;80.40;;;;;;4825173;29;20301;-81
2021/04/11 02:13:30;;;;;;;4.28;3.88;;;5.50;79.50;;;;;;4837630;29;20072;-82
2021/04/11 02:16:26;;;;;;;5.03;4.13;;;5.50;81.10;;;;;;4825571;29;20090;-82
2021/04/11 02:19:06;;;;;;;5.30;4.50;;;5.40;84.80;;;;;;4825394;29;20476;-81
2021/04/11 02:21:38;;;;;;;6.13;4.72;;;5.20;83.80;;;;;;4841132;29;20050;-81
2021/04/11 02:24:09;;;;;;;4.38;3.97;;;5.20;85.80;;;;;;4810469;29;20847;-82
2021/04/11 02:26:42;;;;;;;4.63;4.22;;;5.20;85.60;;;;;;4825140;29;20389;-81
2021/04/11 02:29:16;;;;;;;5.25;4.63;;;5.20;87.70;;;;;;4825133;29;20057;-81
2021/04/11 02:31:44;;;;;;;5.95;5.35;;;5.20;87.20;;;;;;4825474;29;20077;-82
2021/04/11 02:34:37;;;;;;;6.32;5.03;;;5.30;85.20;;;;;;4841126;29;20045;-81
2021/04/11 02:37:05;;;;;;;5.32;4.82;;;5.40;82.90;;;;;;4841071;29;20054;-81
2021/04/11 02:39:41;;;;;;;6.20;4.85;;;5.60;82.40;;;;;;4824190;29;20058;-81
2021/04/11 02:42:20;;;;;;;4.85;4.45;;;5.60;82.30;;;;;;4823872;29;20041;-81
2021/04/11 02:44:51;;;;;;;5.50;4.95;;;5.60;82.40;;;;;;4823147;29;20061;-81
2021/04/11 02:47:24;;;;;;;5.70;4.88;;;5.60;82.40;;;;;;4821963;29;20059;-81
2021/04/11 02:49:56;;;;;;;5.85;5.15;;;5.70;82.20;;;;;;4791313;29;20046;-81
2021/04/11 02:52:32;;;;;;;4.88;4.00;;;5.70;82.20;;;;;;4806700;29;20054;-75
2021/04/11 02:55:01;;;;;;;5.72;3.88;;;5.60;82.00;;;;;;4805364;29;20393;-79
2021/04/11 02:57:30;;;;;;;7.35;5.15;;;5.50;81.40;;;;;;4822157;29;20047;-79
2021/04/11 03:00:06;;;;;;;4.95;4.28;;;5.50;81.00;;;;;;4823309;29;20073;-79
2021/04/11 03:02:37;;;;;;;4.00;3.60;;;5.50;81.10;;;;;;4806500;29;20054;-79
2021/04/11 03:05:09;;;;;;;6.25;4.25;;;5.50;81.40;;;;;;4822228;29;20058;-78
2021/04/11 03:07:50;;;;;;;4.80;4.40;;;5.40;82.70;;;;;;4791757;29;20589;-79
2021/04/11 03:10:44;;;;;;;4.43;4.03;;;5.30;84.00;;;;;;4806477;29;20051;-79
2021/04/11 03:13:15;;;;;;;3.85;3.55;;;5.30;83.30;;;;;;4806364;29;20065;-79
2021/04/11 03:15:46;;;;;;;11.13;4.95;;;5.30;82.60;;;;;;4822146;29;20055;-79
2021/04/11 03:18:15;;;;;;;5.35;4.38;;;5.40;81.60;;;;;;4806078;29;20042;-79
2021/04/11 03:20:46;;;;;;;6.45;4.07;;;5.50;81.50;;;;;;4823361;29;20787;-79
2021/04/11 03:23:20;;;;;;;6.93;3.60;;;5.70;80.30;;;;;;4840853;29;20045;-79
2021/04/11 03:26:03;;;;;;;8.40;5.20;;;5.60;81.80;;;;;;4825339;29;20420;-79
2021/04/11 03:28:48;;;;;;;4.60;4.20;;;5.40;84.90;;;;;;4812647;29;20057;-79
2021/04/11 03:31:22;;;;;;;6.20;5.53;;;5.20;84.10;;;;;;4812354;29;20038;-79
2021/04/11 03:33:52;;;;;;;4.38;3.97;;;5.30;84.60;;;;;;4812902;29;20413;-79
2021/04/11 03:36:21;;;;;;;6.43;4.18;;;5.30;84.10;;;;;;4844747;29;20049;-79
2021/04/11 03:38:53;;;;;;;6.20;5.10;;;5.30;85.30;;;;;;4827510;29;20792;-79
2021/04/11 03:41:21;;;;;;;4.90;4.40;;;5.30;84.90;;;;;;4843872;29;20076;-79
2021/04/11 03:43:58;;;;;;;7.32;6.70;;;5.30;85.00;;;;;;4798894;29;20050;-79
2021/04/11 03:46:39;;;;;;;6.57;4.95;;;5.30;86.20;;;;;;4827493;29;20117;-79
2021/04/11 03:49:29;;;;;;;5.07;4.57;;;5.30;85.80;;;;;;4827370;29;20066;-79
2021/04/11 03:52:04;;;;;;;7.13;4.90;;;5.30;86.00;;;;;;4827479;29;20629;-79
2021/04/11 03:54:39;;;;;;;5.70;4.57;;;5.30;86.20;;;;;;4827418;29;20799;-79
2021/04/11 03:57:28;;;;;;;4.68;4.13;;;5.30;85.90;;;;;;4827633;29;20058;-79
2021/04/11 04:00:13;;;;;;;5.75;3.95;;;5.40;86.20;;;;;;4827508;29;20049;-79
2021/04/11 04:02:44;;;;;;;6.43;5.03;;;5.30;86.20;;;;;;4843632;29;20059;-79
2021/04/11 04:05:25;;;;;;;5.22;4.78;;;5.30;86.20;;;;;;4812196;29;20069;-79
2021/04/11 04:07:58;;;;;;;5.03;4.53;;;5.30;85.20;;;;;;4826992;29;20049;-79
2021/04/11 04:10:31;;;;;;;5.50;5.00;;;5.40;84.90;;;;;;4843418;29;20065;-79
2021/04/11 04:13:34;;;;;;;4.80;4.40;;;5.50;84.40;;;;;;4827659;29;20081;-79
2021/04/11 04:16:13;;;;;;;10.02;5.55;;;5.40;85.90;;;;;;4814559;29;20046;-79
2021/04/11 04:19:32;;;;;;;3.78;3.45;;;5.40;86.10;;;;;;4813760;29;20073;-79
2021/04/11 04:22:48;;;;;;;4.38;3.70;;;5.40;87.80;;;;;;4826799;29;20052;-79
2021/04/11 04:25:41;;;;;;;3.85;3.55;;;5.40;86.80;;;;;;4826816;29;20370;-78
2021/04/11 04:28:39;;;;;;;7.15;3.00;;;5.50;86.70;;;;;;4812957;29;20071;-79
2021/04/11 04:31:37;;;;;;;3.50;3.17;;;5.50;86.30;;;;;;4826205;29;20057;-79
2021/04/11 04:34:17;;;;;;;4.72;3.60;;;5.60;85.90;;;;;;4812028;29;20528;-79
2021/04/11 04:37:02;;;;;;;4.35;3.72;;;5.60;85.80;;;;;;4827111;29;20054;-79
2021/04/11 04:40:00;;;;;;;3.88;3.33;;;5.60;86.20;;;;;;4811138;29;20058;-79
2021/04/11 04:43:00;;;;;;;3.28;2.97;;;5.60;86.40;;;;;;4812749;29;20061;-79
2021/04/11 04:46:06;;;;;;;4.30;3.95;;;5.60;87.00;;;;;;4826272;29;20408;-79
2021/04/11 04:48:40;;;;;;;4.05;3.75;;;5.60;86.80;;;;;;4827039;29;20054;-79
2021/04/11 04:51:35;;;;;;;3.97;3.63;;;5.50;87.70;;;;;;4842796;29;20417;-79
2021/04/11 04:54:14;;;;;;;4.20;3.80;;;5.40;89.90;;;;;;4811439;29;20049;-79
2021/04/11 04:56:48;;;;;;;3.38;3.08;;;5.20;90.40;;;;;;4797116;29;20057;-79
2021/04/11 04:59:23;;;;;;;5.80;3.83;;;5.10;90.40;;;;;;4826414;29;20394;-79
2021/04/11 05:02:05;;;;;;;4.53;4.13;;;5.10;90.30;;;;;;4842321;29;20053;-79
2021/04/11 05:04:54;;;;;;;3.83;3.53;;;5.20;90.20;;;;;;4826873;29;20050;-79
2021/04/11 05:07:27;;;;;;;5.65;3.97;;;5.40;88.80;;;;;;4842540;29;20054;-79
2021/04/11 05:10:07;;;;;;;3.90;3.65;;;5.50;88.50;;;;;;4826230;29;20046;-79
2021/04/11 05:12:57;;;;;;;4.40;4.10;;;5.50;88.90;;;;;;4842949;29;20050;-79
2021/04/11 05:15:40;;;;;;;4.40;3.85;;;5.50;90.40;;;;;;4842237;29;20053;-79
2021/04/11 05:18:27;;;;;;;3.72;3.42;;;5.50;91.20;;;;;;4810404;29;20042;-79
2021/04/11 05:21:14;;;;;;;3.92;3.63;;;5.40;91.50;;;;;;4807817;29;20069;-78
2021/04/11 05:23:54;;;;;;;3.67;3.40;;;5.40;91.30;;;;;;4824706;29;20054;-79
2021/04/11 05:26:36;;;;;;;3.47;3.17;;;5.50;91.00;;;;;;4824256;29;20058;-79
2021/04/11 05:29:22;;;;;;;5.43;3.95;;;5.70;89.50;;;;;;4807452;29;20050;-78
2021/04/11 05:31:52;;;;;;;3.70;3.35;;;5.80;91.10;;;;;;4823364;29;20050;-79
2021/04/11 05:34:20;;;;;;;4.25;3.60;;;5.90;90.70;;;;;;4840972;29;20054;-79
2021/04/11 05:36:51;;;;;;;4.72;4.10;;;6.10;90.10;;;;;;4832529;29;20064;-79
2021/04/11 05:39:44;;;;;;;3.90;3.53;;;6.30;88.80;;;;;;4836174;29;20404;-79
2021/04/11 05:42:30;;;;;;;5.15;4.07;;;6.50;86.60;;;;;;4841436;29;20400;-79
2021/04/11 05:45:12;;;;;;;4.30;3.78;;;6.60;88.60;;;;;;4826103;29;20519;-79
2021/04/11 05:48:01;;;;;;;4.53;4.07;;;6.80;89.50;;;;;;4821727;29;20061;-79
2021/04/11 05:50:37;;;;;;;3.97;3.67;;;6.80;90.20;;;;;;4827865;29;20050;-79
2021/04/11 05:53:14;;;;;;;3.80;3.42;;;6.90;91.30;;;;;;4807630;29;20050;-78
2021/04/11 05:55:47;;;;;;;4.40;3.60;;;6.90;91.20;;;;;;4823637;29;20058;-79
2021/04/11 05:58:21;;;;;;;4.18;3.88;;;7.10;92.20;;;;;;4821838;29;20046;-79
2021/04/11 06:01:12;;;;;;;5.32;3.45;;;7.20;90.60;;;;;;4842094;29;20050;-79
2021/04/11 06:03:50;;;;;;;8.48;4.15;;;7.40;91.00;;;;;;4810571;29;20050;-79
2021/04/11 06:07:08;;;;;;;5.25;3.35;;;7.40;91.90;;;;;;4825032;29;20050;-79
2021/04/11 06:10:17;;;;;;;15.52;4.15;;;7.80;90.40;;;;;;4787781;29;20046;-79
2021/04/11 06:13:30;;;;;;;4.07;3.70;;;8.10;87.70;;;;;;4746053;30;20048;-80
2021/04/11 06:16:05;;;;;;;3.78;3.42;;;8.20;85.00;;;;;;4734570;30;20060;-80
2021/04/11 06:18:32;;;;;;;7.93;4.05;;;8.30;91.00;;;;;;4835473;29;20475;-80
2021/04/11 06:21:12;;;;;;;3.47;3.10;;;8.50;90.40;;;;;;4841076;29;20058;-80
2021/04/11 06:24:00;;;;;;;8.48;3.45;;;8.80;85.70;;;;;;4824886;29;20057;-80
2021/04/11 06:27:00;;;;;;;3.97;3.33;;;9.00;83.80;;;;;;4841545;29;20527;-80
2021/04/11 06:29:33;;;;;;;3.65;3.35;;;9.30;84.60;;;;;;4795257;29;20050;-80
2021/04/11 06:32:11;;;;;;;6.10;4.57;;;9.90;81.50;;;;;;4841027;29;20057;-80
2021/04/11 06:34:45;;;;;;;10.60;4.18;;;10.30;76.90;;;;;;4841813;29;20065;-80
2021/04/11 06:37:17;;;;;;;9.77;3.95;;;11.00;78.80;;;;;;4840665;29;20437;-80
2021/04/11 06:39:46;;;;;;;3.63;3.33;;;11.50;71.60;;;;;;4841952;29;20412;-80
2021/04/11 06:42:40;;;;;;;3.63;3.17;;;11.90;74.20;;;;;;4841430;29;20050;-80
2021/04/11 06:45:18;;;;;;;3.40;3.10;;;12.70;69.10;;;;;;4825303;29;20049;-80
2021/04/11 06:48:05;;;;;;;3.88;3.20;;;13.50;68.50;;;;;;4842335;29;20420;-80
2021/04/11 06:50:55;;;;;;;3.33;2.95;;;13.60;66.30;;;;;;4841338;29;20404;-81
2021/04/11 06:53:51;;;;;;;3.53;3.10;;;13.40;66.70;;;;;;4825004;29;20046;-80
2021/04/11 06:56:29;;;;;;;3.63;3.33;;;13.40;70.40;;;;;;4841906;29;20058;-81
2021/04/11 06:59:11;;;;;;;6.22;4.53;;;14.40;66.40;;;;;;4841220;29;20050;-81
2021/04/11 07:02:23;;;;;;;4.78;2.92;;;14.60;63.30;;;;;;4843240;29;20042;-81
2021/04/11 07:05:14;;;;;;;5.60;2.80;;;14.80;60.90;;;;;;4845718;29;20069;-81
2021/04/11 07:08:13;;;;;;;3.30;3.00;;;14.50;62.20;;;;;;4798198;29;20050;-80
2021/04/11 07:10:43;;;;;;;2.88;2.65;;;15.30;60.00;;;;;;4827516;29;20527;-82
2021/04/11 07:13:31;;;;;;;2.78;2.47;;;16.40;56.50;;;;;;4844736;29;20061;-77
2021/04/11 07:16:14;;;;;;;3.95;3.30;;;16.60;53.90;;;;;;4845398;29;20049;-81
2021/04/11 07:19:13;;;;;;;5.22;3.20;;;17.30;48.70;;;;;;4844129;29;20038;-81
2021/04/11 07:22:05;;;;;;;5.20;4.55;;;17.50;49.40;;;;;;4844259;29;20058;-81
2021/04/11 07:25:13;;;;;;;2.85;2.35;;;17.00;48.10;;;;;;4807728;29;20121;-84
2021/04/11 07:28:10;;;;;;;2.42;2.22;;;15.90;52.20;;;;;;4772243;29;20057;-84
2021/04/11 07:30:50;;;;;;;2.30;1.98;;;15.70;52.40;;;;;;4821824;29;20054;-86
2021/04/11 07:33:53;;;;;;;3.15;2.95;;;17.40;46.00;;;;;;4814327;29;20073;-82
2021/04/11 07:36:45;;;;;;;7.22;2.38;;;16.90;44.60;;;;;;4810136;29;20061;-80
2021/04/11 07:39:37;;;;;;;5.05;2.72;;;16.60;47.70;;;;;;4796888;29;20038;-82
2021/04/11 07:42:26;;;;;;;2.80;2.60;;;18.50;46.00;;;;;;4827321;29;20041;-83
2021/04/11 07:45:20;;;;;;;2.72;2.53;;;20.60;41.00;;;;;;4810451;29;20054;-83
2021/04/11 07:48:11;;;;;;;6.55;2.30;;;20.60;39.50;;;;;;4789466;29;20053;-83
2021/04/11 07:50:59;;;;;;;4.95;2.78;;;21.20;36.20;;;;;;4808904;29;20046;-83
2021/04/11 07:53:57;;;;;;;3.13;2.40;;;21.70;37.10;;;;;;4809364;29;20047;-82
2021/04/11 07:56:51;;;;;;;3.10;2.55;;;23.60;34.40;;;;;;4828564;29;20052;-83
2021/04/11 07:59:44;;;;;;;2.80;2.30;;;24.40;34.30;;;;;;4768131;29;20042;-83
2021/04/11 08:02:31;;;;;;;5.22;2.30;;;24.80;32.40;;;;;;4824565;29;20065;-83
2021/04/11 08:05:44;;;;;;;3.90;2.92;;;25.90;30.20;;;;;;4810179;29;20062;-83
2021/04/11 08:08:16;;;;;;;5.80;2.50;;;26.60;28.80;;;;;;4813711;29;20063;-83
2021/04/11 08:11:15;;;;;;;3.40;2.72;;;26.10;29.90;;;;;;4809068;29;20061;-84
2021/04/11 08:14:03;;;;;;;6.68;3.15;;;24.40;31.00;;;;;;4822819;29;20047;-75
2021/04/11 08:17:04;;;;;;;6.40;3.33;;;24.00;32.60;;;;;;4823917;29;20058;-75
2021/04/11 08:19:50;;;;;;;2.63;2.28;;;23.80;34.20;;;;;;4808783;29;20401;-83
2021/04/11 08:22:54;;;;;;;4.45;3.67;;;24.80;32.50;;;;;;4809607;29;20051;-83
2021/04/11 08:26:02;;;;;;;3.03;2.38;;;24.00;34.90;;;;;;4824530;29;20058;-81
2021/04/11 08:28:48;;;;;;;3.95;3.47;;;23.60;34.40;;;;;;4780316;29;20069;-82
2021/04/11 08:31:30;;;;;;;3.45;3.15;;;23.40;35.90;;;;;;4824185;29;20061;-83
2021/04/11 08:34:09;;;;;;;3.00;2.80;;;23.70;35.20;;;;;;4825168;29;20042;-82
2021/04/11 08:37:04;;;;;;;3.03;2.30;;;23.80;34.60;;;;;;4794693;29;20054;-83
2021/04/11 08:39:58;;;;;;;2.85;2.35;;;23.10;34.20;;;;;;4808947;29;20057;-82
2021/04/11 08:42:43;;;;;;;2.88;2.22;;;24.80;30.10;;;;;;4811377;29;20057;-83
2021/04/11 08:45:34;;;;;;;2.67;2.17;;;25.40;30.20;;;;;;4826962;29;20054;-83
2021/04/11 08:48:35;;;;;;;3.08;2.80;;;25.20;29.80;;;;;;4843868;29;20077;-82
2021/04/11 08:51:21;;;;;;;2.78;2.13;;;24.20;32.00;;;;;;4827017;29;20058;-82
2021/04/11 08:54:02;;;;;;;3.25;2.17;;;24.30;31.40;;;;;;4843365;29;20050;-83
2021/04/11 08:56:57;;;;;;;2.38;2.17;;;24.30;32.40;;;;;;4843704;29;20058;-83
2021/04/11 08:59:40;;;;;;;3.20;2.10;;;23.60;31.40;;;;;;4824839;29;20527;-83
2021/04/11 09:02:14;;;;;;;1.98;1.52;;;22.20;34.70;;;;;;4808398;29;20072;-84
2021/04/11 09:04:53;;;;;;;3.10;2.33;;;21.20;37.40;;;;;;4809382;29;20065;-83
2021/04/11 09:07:47;;;;;;;4.70;2.15;;;20.10;38.90;;;;;;4808648;29;20062;-83
2021/04/11 09:10:23;;;;;;;2.13;1.55;;;20.30;36.90;;;;;;4780912;29;20050;-83
2021/04/11 09:12:50;;;;;;;1.85;1.75;;;20.40;38.50;;;;;;4808089;29;20069;-83
2021/04/11 09:15:48;;;;;;;1.60;1.35;;;20.20;38.10;;;;;;4807482;29;20047;-83
2021/04/11 09:18:51;;;;;;;2.55;1.40;;;19.90;40.20;;;;;;4793690;29;20058;-83
2021/04/11 09:21:32;;;;;;;2.45;2.25;;;19.70;44.90;;;;;;4824551;29;20066;-83
2021/04/11 09:24:09;;;;;;;1.98;1.48;;;19.50;39.70;;;;;;4825253;29;20058;-83
2021/04/11 09:27:18;;;;;;;3.05;1.50;;;19.50;43.70;;;;;;4824456;29;20054;-83
2021/04/11 09:30:19;;;;;;;1.50;1.40;;;19.30;43.90;;;;;;4784722;29;20043;-83
2021/04/11 09:33:23;;;;;;;1.95;1.30;;;19.40;44.00;;;;;;4815555;29;20497;-83
2021/04/11 09:36:02;;;;;;;3.30;2.80;;;19.50;42.70;;;;;;4809499;29;20058;-83
2021/04/11 09:38:51;;;;;;;2.17;1.75;;;19.50;45.90;;;;;;4824361;29;20046;-82
2021/04/11 09:41:21;;;;;;;2.60;1.40;;;19.80;41.10;;;;;;4823264;29;20134;-83
2021/04/11 09:44:06;;;;;;;2.13;1.75;;;19.40;40.90;;;;;;4824646;29;20433;-84
2021/04/11 09:46:54;;;;;;;1.20;1.10;;;19.00;43.50;;;;;;4792751;29;20061;-83
2021/04/11 09:49:35;;;;;;;2.30;1.15;;;19.00;47.00;;;;;;4807102;29;20070;-83
2021/04/11 09:52:24;;;;;;;1.75;1.60;;;19.00;41.00;;;;;;4824065;29;20125;-83
2021/04/11 09:55:22;;;;;;;1.20;1.10;;;19.00;42.90;;;;;;4792867;29;20065;-83
2021/04/11 09:58:23;;;;;;;0.98;0.98;;;19.10;42.30;;;;;;4807622;29;20046;-83
2021/04/11 10:01:01;;;;;;;2.20;1.38;;;19.10;39.80;;;;;;4807818;29;20062;-83
2021/04/11 10:04:03;;;;;;;2.90;1.40;;;19.20;40.50;;;;;;4807318;29;20055;-83
2021/04/11 10:07:25;;;;;;;6.05;1.40;;;19.20;43.40;;;;;;4807804;29;20061;-83
2021/04/11 10:10:22;;;;;;;2.47;1.27;;;19.20;42.60;;;;;;4731370;30;20094;-83
2021/04/11 10:13:01;;;;;;;2.33;1.45;;;19.20;46.80;;;;;;4732169;30;20061;-82
2021/04/11 10:15:40;;;;;;;0.98;0.93;;;19.30;43.70;;;;;;4802717;29;20050;-84
2021/04/11 10:18:14;;;;;;;1.10;0.88;;;19.40;43.30;;;;;;4811865;29;20057;-84
2021/04/11 10:21:06;;;;;;;1.27;1.20;;;19.50;42.00;;;;;;4817942;29;20068;-85
2021/04/11 10:23:55;;;;;;;0.50;0.50;;;19.20;47.90;;;;;;4822845;29;20054;-82
2021/04/11 10:27:10;;;;;;;1.30;1.20;;;19.40;40.80;;;;;;4833842;29;20398;-79
2021/04/11 10:29:43;;;;;;;8.85;1.42;;;19.00;45.70;;;;;;4730811;30;20045;-79
2021/04/11 10:32:19;;;;;;;2.50;0.90;;;18.90;42.30;;;;;;4733231;30;20523;-81
2021/04/11 10:35:18;;;;;;;0.65;0.65;;;19.00;43.40;;;;;;4776436;29;20058;-78
2021/04/11 10:38:02;;;;;;;1.10;1.00;;;19.00;42.90;;;;;;4822641;29;20069;-78
2021/04/11 10:41:10;;;;;;;2.78;1.25;;;18.90;42.20;;;;;;4829407;29;20064;-78
2021/04/11 10:44:01;;;;;;;1.55;1.23;;;19.10;44.40;;;;;;4815587;29;20050;-78
2021/04/11 10:46:55;;;;;;;4.65;0.98;;;19.10;47.90;;;;;;4840316;29;20060;-78
2021/04/11 10:49:53;;;;;;;2.15;0.88;;;19.10;46.90;;;;;;4841010;29;20076;-78
2021/04/11 10:52:38;;;;;;;1.85;1.00;;;19.20;43.00;;;;;;4841616;29;20062;-78
2021/04/11 10:55:24;;;;;;;1.65;0.75;;;19.10;40.20;;;;;;4841186;29;20046;-78
2021/04/11 10:58:23;;;;;;;0.57;0.57;;;18.80;42.20;;;;;;4841052;29;20057;-79
2021/04/11 11:01:05;;;;;;;1.23;0.98;;;19.10;42.20;;;;;;4841336;29;20492;-79
2021/04/11 11:03:41;;;;;;;0.80;0.80;;;19.00;42.00;;;;;;4824589;29;20058;-78
2021/04/11 11:06:46;;;;;;;0.70;0.70;;;19.10;40.90;;;;;;4841340;29;20050;-79
2021/04/11 11:09:44;;;;;;;0.98;0.90;;;19.10;38.60;;;;;;4841233;29;20065;-78
2021/04/11 11:12:15;;;;;;;0.68;0.68;;;19.00;41.70;;;;;;4840546;29;20057;-78
2021/04/11 11:15:05;;;;;;;1.50;0.88;;;19.20;42.40;;;;;;4824354;29;20054;-78
2021/04/11 11:18:09;;;;;;;0.80;0.80;;;19.30;45.30;;;;;;4824449;29;20682;-79
2021/04/11 11:20:54;;;;;;;1.70;1.05;;;19.70;40.80;;;;;;4824581;29;20055;-81
2021/04/11 11:23:27;;;;;;;4.03;0.77;;;19.80;39.80;;;;;;4823097;29;20047;-80
2021/04/11 11:26:20;;;;;;;1.83;0.60;;;19.80;39.70;;;;;;4806641;29;20054;-79
2021/04/11 11:29:15;;;;;;;0.50;0.50;;;19.90;40.10;;;;;;4839688;29;20386;-80
2021/04/11 11:32:11;;;;;;;0.65;0.43;;;19.90;41.80;;;;;;4823836;29;20077;-80
2021/04/11 11:34:50;;;;;;;2.10;0.77;;;19.70;39.70;;;;;;4839830;29;20511;-77
2021/04/11 11:37:27;;;;;;;0.55;0.55;;;19.70;41.60;;;;;;4840077;29;20058;-79
2021/04/11 11:40:32;;;;;;;1.05;0.95;;;19.80;40.30;;;;;;4824622;29;20376;-80
2021/04/11 11:43:28;;;;;;;4.45;0.80;;;19.90;39.30;;;;;;4748513;30;20056;-80
2021/04/11 11:46:14;;;;;;;0.82;0.80;;;19.90;40.30;;;;;;4840757;29;20069;-80
2021/04/11 11:49:05;;;;;;;0.65;0.65;;;19.50;41.00;;;;;;4827262;29;20180;-80
2021/04/11 11:51:36;;;;;;;2.42;0.68;;;19.50;39.40;;;;;;4842221;29;20057;-77
2021/04/11 11:54:32;;;;;;;0.88;0.88;;;19.60;38.90;;;;;;4842475;29;20053;-76
2021/04/11 11:57:24;;;;;;;1.25;0.70;;;19.60;41.20;;;;;;4837169;29;20060;-80
2021/04/11 12:00:16;;;;;;;0.45;0.45;;;19.80;40.10;;;;;;4810915;29;20046;-79
2021/04/11 12:03:02;;;;;;;;;;;19.90;45.80;;;;;;4824475;29;20085;-77
2021/04/11 12:05:43;;;;;;;2.45;0.80;;;19.80;40.30;;;;;;4823989;29;20377;-76
2021/04/11 12:08:39;;;;;;;0.90;0.73;;;19.80;43.50;;;;;;4824379;29;20062;-77
2021/04/11 12:11:32;;;;;;;0.80;0.60;;;20.10;38.60;;;;;;4800055;29;20054;-80
2021/04/11 12:14:21;;;;;;;0.60;0.52;;;20.30;40.70;;;;;;4809170;29;20046;-80
2021/04/11 12:17:03;;;;;;;0.90;0.80;;;20.40;38.50;;;;;;4824831;29;20073;-80
2021/04/11 12:19:41;;;;;;;0.67;0.63;;;20.40;38.80;;;;;;4824431;29;20046;-79
2021/04/11 12:22:30;;;;;;;0.98;0.80;;;20.30;37.10;;;;;;4824879;29;20284;-79
2021/04/11 12:25:04;;;;;;;3.75;0.60;;;20.30;36.90;;;;;;4825336;29;20065;-80
2021/04/11 12:27:39;;;;;;;3.22;0.70;;;20.20;36.20;;;;;;4831173;29;20062;-79
2021/04/11 12:30:28;;;;;;;1.45;1.02;;;20.00;36.80;;;;;;4842777;29;20046;-79
2021/04/11 12:33:12;;;;;;;0.75;0.75;;;20.10;38.20;;;;;;4842825;29;20065;-77
2021/04/11 12:36:01;;;;;;;1.08;1.05;;;19.90;38.00;;;;;;4841909;29;20073;-77
2021/04/11 12:38:48;;;;;;;1.00;0.80;;;19.60;43.80;;;;;;4841523;29;20392;-76
2021/04/11 12:41:56;;;;;;;0.40;0.40;;;19.20;42.30;;;;;;4841748;29;20066;-77
2021/04/11 12:44:37;;;;;;;0.65;0.65;;;19.00;44.00;;;;;;4824323;29;20599;-77
2021/04/11 12:47:16;;;;;;;0.75;0.57;;;18.90;41.60;;;;;;4822874;29;20058;-77
2021/04/11 12:49:55;;;;;;;3.90;0.60;;;19.00;41.70;;;;;;4835055;29;20057;-79
2021/04/11 12:52:36;;;;;;;0.85;0.70;;;19.00;43.80;;;;;;4823608;29;20524;-76
2021/04/11 12:55:10;;;;;;;2.35;0.65;;;18.90;41.50;;;;;;4829843;29;20416;-76
2021/04/11 12:57:44;;;;;;;0.73;0.73;;;18.80;45.60;;;;;;4824163;29;20061;-77
2021/04/11 13:00:22;;;;;;;2.72;1.27;;;18.80;45.10;;;;;;4825944;29;20061;-86
2021/04/11 13:03:01;;;;;;;0.98;0.70;;;18.90;45.00;;;;;;4811468;29;20054;-86
2021/04/11 13:05:41;;;;;;;2.25;0.65;;;18.80;41.70;;;;;;4811776;29;20041;-86
2021/04/11 13:08:31;;;;;;;1.65;0.80;;;18.70;40.30;;;;;;4828189;29;20062;-86
2021/04/11 13:11:11;;;;;;;0.60;0.50;;;18.60;45.20;;;;;;4811431;29;20073;-86
2021/04/11 13:14:06;;;;;;;1.05;0.68;;;18.40;48.80;;;;;;4812894;29;20046;-85
2021/04/11 13:16:48;;;;;;;1.52;1.42;;;18.30;46.00;;;;;;4812141;29;20065;-87
2021/04/11 13:19:25;;;;;;;0.65;0.60;;;18.20;49.00;;;;;;4836224;29;20058;-86
2021/04/11 13:22:12;;;;;;;0.68;0.50;;;18.10;49.80;;;;;;4823808;29;20050;-87
2021/04/11 13:24:58;;;;;;;0.60;0.60;;;17.90;48.50;;;;;;4793990;29;20065;-86
2021/04/11 13:27:29;;;;;;;1.25;0.95;;;17.90;53.20;;;;;;4814341;29;20484;-87
2021/04/11 13:29:59;;;;;;;0.47;0.47;;;17.80;52.40;;;;;;4811324;29;20526;-86
2021/04/11 13:33:01;;;;;;;1.15;0.70;;;17.60;59.00;;;;;;4827261;29;20416;-86
2021/04/11 13:35:39;;;;;;;0.70;0.63;;;17.40;64.20;;;;;;4826732;29;20524;-85
2021/04/11 13:38:20;;;;;;;2.05;0.77;;;17.20;71.00;;;;;;4823569;29;20406;-87
2021/04/11 13:40:48;;;;;;;1.73;0.93;;;17.00;69.80;;;;;;4842924;29;20050;-86
2021/04/11 13:43:39;;;;;;;0.77;0.70;;;16.90;69.40;;;;;;4813821;29;20288;-87
2021/04/11 13:46:42;;;;;;;1.23;0.93;;;16.50;68.30;;;;;;4826530;29;20041;-86
2021/04/11 13:49:39;;;;;;;1.13;1.02;;;16.40;55.30;;;;;;4820533;29;20054;-86
2021/04/11 13:52:48;;;;;;;3.40;0.95;;;16.40;53.90;;;;;;4790998;29;20061;-86
2021/04/11 13:55:18;;;;;;;0.73;0.55;;;16.30;58.70;;;;;;4842418;29;20046;-87
2021/04/11 13:57:49;;;;;;;0.77;0.60;;;16.30;54.60;;;;;;4810348;29;20058;-87
2021/04/11 14:00:25;;;;;;;;;;;16.40;54.90;;;;;;4826727;29;20080;-87
2021/04/11 14:02:53;;;;;;;0.60;0.60;;;16.40;56.20;;;;;;4826108;29;19928;-87
2021/04/11 14:05:30;;;;;;;0.52;0.52;;;16.30;57.50;;;;;;4811064;29;20489;-87
2021/04/11 14:08:16;;;;;;;1.27;1.00;;;16.30;59.20;;;;;;4826574;29;20061;-86
2021/04/11 14:11:11;;;;;;;0.77;0.77;;;16.30;58.70;;;;;;4810444;29;20046;-86
2021/04/11 14:13:58;;;;;;;0.65;0.63;;;16.50;58.30;;;;;;4825580;29;20050;-86
2021/04/11 14:16:48;;;;;;;1.00;0.90;;;16.80;57.80;;;;;;4825621;29;20484;-86